sensor_id;sensor_type;location;lat;lon;timestamp;temperature;humidity
24836;DHT22;12915;57.650;12.044;2022-07-29T00:02:00;18.00;99.90
24836;DHT22;12915;57.650;12.044;2022-07-29T00:04:26;18.00;99.90
24836;DHT22;12915;57.650;12.044;2022-07-29T00:06:52;18.00;99.90
24836;DHT22;12915;57.650;12.044;2022-07-29T00:09:18;18.10;99.90
24836;DHT22;12915;57.650;12.044;2022-07-29T00:11:48;18.00;99.90
24836;DHT22;12915;57.650;12.044;2022-07-29T00:14:29;18.00;99.90
24836;DHT22;12915;57.650;12.044;2022-07-29T00:16:56;18.00;99.90
24836;DHT22;12915;57.650;12.044;2022-07-29T00:19:27;18.00;99.90
24836;DHT22;12915;57.650;12.044;2022-07-29T00:21:55;17.90;99.90
24836;DHT22;12915;57.650;12.044;2022-07-29T00:24:21;17.80;99.90
24836;DHT22;12915;57.650;12.044;2022-07-29T00:30:11;17.80;99.90
24836;DHT22;12915;57.650;12.044;2022-07-29T00:32:39;17.70;99.90
24836;DHT22;12915;57.650;12.044;2022-07-29T00:35:05;17.70;99.90
24836;DHT22;12915;57.650;12.044;2022-07-29T00:37:51;17.80;99.90
24836;DHT22;12915;57.650;12.044;2022-07-29T00:40:17;17.60;99.90
24836;DHT22;12915;57.650;12.044;2022-07-29T00:42:47;17.40;99.90
24836;DHT22;12915;57.650;12.044;2022-07-29T00:45:14;17.40;99.90
24836;DHT22;12915;57.650;12.044;2022-07-29T00:47:40;17.50;99.90
24836;DHT22;12915;57.650;12.044;2022-07-29T00:50:08;17.60;99.90
24836;DHT22;12915;57.650;12.044;2022-07-29T00:52:51;17.70;99.90
24836;DHT22;12915;57.650;12.044;2022-07-29T00:55:20;17.70;99.90
24836;DHT22;12915;57.650;12.044;2022-07-29T00:57:47;17.60;99.90
24836;DHT22;12915;57.650;12.044;2022-07-29T01:00:16;17.50;99.90
24836;DHT22;12915;57.650;12.044;2022-07-29T01:02:43;17.40;99.90
24836;DHT22;12915;57.650;12.044;2022-07-29T01:05:10;17.30;99.90
24836;DHT22;12915;57.650;12.044;2022-07-29T01:07:37;17.40;99.90
24836;DHT22;12915;57.650;12.044;2022-07-29T01:10:04;17.40;99.90
24836;DHT22;12915;57.650;12.044;2022-07-29T01:12:32;17.40;99.90
24836;DHT22;12915;57.650;12.044;2022-07-29T01:15:00;17.40;99.90
24836;DHT22;12915;57.650;12.044;2022-07-29T01:17:52;17.20;99.90
24836;DHT22;12915;57.650;12.044;2022-07-29T01:20:24;17.20;99.90
24836;DHT22;12915;57.650;12.044;2022-07-29T01:31:11;17.10;99.90
24836;DHT22;12915;57.650;12.044;2022-07-29T01:33:41;17.10;99.90
24836;DHT22;12915;57.650;12.044;2022-07-29T01:36:18;17.00;99.90
24836;DHT22;12915;57.650;12.044;2022-07-29T01:38:54;16.90;99.90
24836;DHT22;12915;57.650;12.044;2022-07-29T01:41:22;16.70;99.90
24836;DHT22;12915;57.650;12.044;2022-07-29T01:43:57;16.70;99.90
24836;DHT22;12915;57.650;12.044;2022-07-29T01:46:38;16.70;99.90
24836;DHT22;12915;57.650;12.044;2022-07-29T01:49:17;16.50;99.90
24836;DHT22;12915;57.650;12.044;2022-07-29T01:51:49;16.60;99.90
24836;DHT22;12915;57.650;12.044;2022-07-29T01:56:56;16.70;99.90
24836;DHT22;12915;57.650;12.044;2022-07-29T01:59:25;16.80;99.90
24836;DHT22;12915;57.650;12.044;2022-07-29T02:01:54;16.90;99.90
24836;DHT22;12915;57.650;12.044;2022-07-29T02:04:21;17.00;99.90
24836;DHT22;12915;57.650;12.044;2022-07-29T02:06:49;16.90;99.90
24836;DHT22;12915;57.650;12.044;2022-07-29T02:09:17;16.80;99.90
24836;DHT22;12915;57.650;12.044;2022-07-29T02:11:49;16.90;99.90
24836;DHT22;12915;57.650;12.044;2022-07-29T02:14:18;16.90;99.90
24836;DHT22;12915;57.650;12.044;2022-07-29T02:16:47;17.00;99.90
24836;DHT22;12915;57.650;12.044;2022-07-29T02:19:14;17.00;99.90
24836;DHT22;12915;57.650;12.044;2022-07-29T02:21:41;17.10;99.90
24836;DHT22;12915;57.650;12.044;2022-07-29T02:24:11;17.10;99.90
24836;DHT22;12915;57.650;12.044;2022-07-29T02:26:38;17.00;99.90
24836;DHT22;12915;57.650;12.044;2022-07-29T02:29:05;17.00;99.90
24836;DHT22;12915;57.650;12.044;2022-07-29T02:31:33;16.90;99.90
24836;DHT22;12915;57.650;12.044;2022-07-29T02:34:02;16.70;99.90
24836;DHT22;12915;57.650;12.044;2022-07-29T02:36:29;16.60;99.90
24836;DHT22;12915;57.650;12.044;2022-07-29T02:38:56;16.60;99.90
24836;DHT22;12915;57.650;12.044;2022-07-29T02:41:44;16.50;99.90
24836;DHT22;12915;57.650;12.044;2022-07-29T02:44:14;16.50;99.90
24836;DHT22;12915;57.650;12.044;2022-07-29T02:46:53;16.60;99.90
24836;DHT22;12915;57.650;12.044;2022-07-29T02:49:42;16.60;99.90
24836;DHT22;12915;57.650;12.044;2022-07-29T02:52:27;16.60;99.90
24836;DHT22;12915;57.650;12.044;2022-07-29T02:55:16;16.60;99.90
24836;DHT22;12915;57.650;12.044;2022-07-29T02:57:47;16.60;99.90
24836;DHT22;12915;57.650;12.044;2022-07-29T03:00:15;16.50;99.90
24836;DHT22;12915;57.650;12.044;2022-07-29T03:02:45;16.60;99.90
24836;DHT22;12915;57.650;12.044;2022-07-29T03:05:20;16.60;99.90
24836;DHT22;12915;57.650;12.044;2022-07-29T03:07:49;16.60;99.90
24836;DHT22;12915;57.650;12.044;2022-07-29T03:10:16;16.50;99.90
24836;DHT22;12915;57.650;12.044;2022-07-29T03:12:43;16.50;99.90
24836;DHT22;12915;57.650;12.044;2022-07-29T03:15:09;16.50;99.90
24836;DHT22;12915;57.650;12.044;2022-07-29T03:17:37;16.40;99.90
24836;DHT22;12915;57.650;12.044;2022-07-29T03:20:03;16.30;99.90
24836;DHT22;12915;57.650;12.044;2022-07-29T03:22:29;16.30;99.90
24836;DHT22;12915;57.650;12.044;2022-07-29T03:24:55;16.30;99.90
24836;DHT22;12915;57.650;12.044;2022-07-29T03:27:21;16.40;99.90
24836;DHT22;12915;57.650;12.044;2022-07-29T03:29:47;16.40;99.90
24836;DHT22;12915;57.650;12.044;2022-07-29T03:32:13;16.40;99.90
24836;DHT22;12915;57.650;12.044;2022-07-29T03:34:38;16.30;99.90
24836;DHT22;12915;57.650;12.044;2022-07-29T03:37:05;16.30;99.90
24836;DHT22;12915;57.650;12.044;2022-07-29T03:39:35;16.30;99.90
24836;DHT22;12915;57.650;12.044;2022-07-29T03:42:05;16.10;99.90
24836;DHT22;12915;57.650;12.044;2022-07-29T03:44:32;16.00;99.90
24836;DHT22;12915;57.650;12.044;2022-07-29T03:47:00;16.00;99.90
24836;DHT22;12915;57.650;12.044;2022-07-29T03:49:27;16.00;99.90
24836;DHT22;12915;57.650;12.044;2022-07-29T03:51:55;16.10;99.90
24836;DHT22;12915;57.650;12.044;2022-07-29T03:54:21;16.00;99.90
24836;DHT22;12915;57.650;12.044;2022-07-29T03:56:48;16.00;99.90
24836;DHT22;12915;57.650;12.044;2022-07-29T03:59:15;16.10;99.90
24836;DHT22;12915;57.650;12.044;2022-07-29T04:01:42;16.10;99.90
24836;DHT22;12915;57.650;12.044;2022-07-29T04:04:08;16.00;99.90
24836;DHT22;12915;57.650;12.044;2022-07-29T04:06:42;16.00;99.90
24836;DHT22;12915;57.650;12.044;2022-07-29T04:09:08;16.10;99.90
24836;DHT22;12915;57.650;12.044;2022-07-29T04:11:34;16.10;99.90
24836;DHT22;12915;57.650;12.044;2022-07-29T04:14:01;16.10;99.90
24836;DHT22;12915;57.650;12.044;2022-07-29T04:16:26;16.10;99.90
24836;DHT22;12915;57.650;12.044;2022-07-29T04:18:52;16.20;99.90
24836;DHT22;12915;57.650;12.044;2022-07-29T04:21:18;16.30;99.90
24836;DHT22;12915;57.650;12.044;2022-07-29T04:23:43;16.50;99.90
24836;DHT22;12915;57.650;12.044;2022-07-29T04:26:10;16.60;99.90
24836;DHT22;12915;57.650;12.044;2022-07-29T04:28:36;16.60;99.90
24836;DHT22;12915;57.650;12.044;2022-07-29T04:31:04;16.70;99.90
24836;DHT22;12915;57.650;12.044;2022-07-29T04:33:30;16.80;99.90
24836;DHT22;12915;57.650;12.044;2022-07-29T04:35:56;17.10;99.90
24836;DHT22;12915;57.650;12.044;2022-07-29T04:38:21;17.20;99.90
24836;DHT22;12915;57.650;12.044;2022-07-29T04:40:47;17.40;99.90
24836;DHT22;12915;57.650;12.044;2022-07-29T04:43:13;17.50;99.90
24836;DHT22;12915;57.650;12.044;2022-07-29T04:45:40;17.60;99.90
24836;DHT22;12915;57.650;12.044;2022-07-29T04:48:05;17.70;99.90
24836;DHT22;12915;57.650;12.044;2022-07-29T04:50:32;17.90;99.90
24836;DHT22;12915;57.650;12.044;2022-07-29T04:52:57;18.00;99.90
24836;DHT22;12915;57.650;12.044;2022-07-29T04:55:23;18.10;99.90
24836;DHT22;12915;57.650;12.044;2022-07-29T04:57:49;18.10;99.90
24836;DHT22;12915;57.650;12.044;2022-07-29T05:00:14;18.20;99.90
24836;DHT22;12915;57.650;12.044;2022-07-29T05:02:40;18.40;99.90
24836;DHT22;12915;57.650;12.044;2022-07-29T05:05:06;18.50;99.90
24836;DHT22;12915;57.650;12.044;2022-07-29T05:07:32;18.60;99.90
24836;DHT22;12915;57.650;12.044;2022-07-29T05:09:58;18.70;99.90
24836;DHT22;12915;57.650;12.044;2022-07-29T05:12:25;18.80;99.90
24836;DHT22;12915;57.650;12.044;2022-07-29T05:14:51;18.90;99.90
24836;DHT22;12915;57.650;12.044;2022-07-29T05:17:17;19.00;99.90
24836;DHT22;12915;57.650;12.044;2022-07-29T05:19:43;19.10;99.90
24836;DHT22;12915;57.650;12.044;2022-07-29T05:22:09;19.20;99.90
24836;DHT22;12915;57.650;12.044;2022-07-29T05:24:35;19.30;99.90
24836;DHT22;12915;57.650;12.044;2022-07-29T05:27:00;19.40;99.90
24836;DHT22;12915;57.650;12.044;2022-07-29T05:29:26;19.50;99.90
24836;DHT22;12915;57.650;12.044;2022-07-29T05:31:52;19.60;99.90
24836;DHT22;12915;57.650;12.044;2022-07-29T05:34:19;19.60;99.90
24836;DHT22;12915;57.650;12.044;2022-07-29T05:36:45;19.70;99.90
24836;DHT22;12915;57.650;12.044;2022-07-29T05:39:11;19.70;99.90
24836;DHT22;12915;57.650;12.044;2022-07-29T05:41:38;19.80;99.90
24836;DHT22;12915;57.650;12.044;2022-07-29T05:44:04;19.90;99.90
24836;DHT22;12915;57.650;12.044;2022-07-29T05:46:30;20.00;99.90
24836;DHT22;12915;57.650;12.044;2022-07-29T05:48:56;20.10;99.90
24836;DHT22;12915;57.650;12.044;2022-07-29T05:51:22;20.10;99.90
24836;DHT22;12915;57.650;12.044;2022-07-29T05:53:47;20.20;99.90
24836;DHT22;12915;57.650;12.044;2022-07-29T05:56:13;20.30;99.90
24836;DHT22;12915;57.650;12.044;2022-07-29T05:58:41;20.40;99.90
24836;DHT22;12915;57.650;12.044;2022-07-29T06:01:07;20.50;99.90
24836;DHT22;12915;57.650;12.044;2022-07-29T06:03:33;20.60;99.90
24836;DHT22;12915;57.650;12.044;2022-07-29T06:06:00;20.70;99.90
24836;DHT22;12915;57.650;12.044;2022-07-29T06:08:25;20.70;99.90
24836;DHT22;12915;57.650;12.044;2022-07-29T06:10:53;20.70;99.90
24836;DHT22;12915;57.650;12.044;2022-07-29T06:13:30;20.80;99.90
24836;DHT22;12915;57.650;12.044;2022-07-29T06:18:31;21.00;99.90
24836;DHT22;12915;57.650;12.044;2022-07-29T06:20:57;21.10;99.90
24836;DHT22;12915;57.650;12.044;2022-07-29T06:23:23;21.10;99.90
24836;DHT22;12915;57.650;12.044;2022-07-29T06:25:49;21.20;99.90
24836;DHT22;12915;57.650;12.044;2022-07-29T06:28:14;21.20;99.90
24836;DHT22;12915;57.650;12.044;2022-07-29T06:30:40;21.30;99.90
24836;DHT22;12915;57.650;12.044;2022-07-29T06:33:06;21.30;99.90
24836;DHT22;12915;57.650;12.044;2022-07-29T06:35:35;21.40;99.90
24836;DHT22;12915;57.650;12.044;2022-07-29T06:38:03;21.30;99.90
24836;DHT22;12915;57.650;12.044;2022-07-29T06:40:29;21.40;99.90
24836;DHT22;12915;57.650;12.044;2022-07-29T06:43:13;21.60;99.90
24836;DHT22;12915;57.650;12.044;2022-07-29T06:45:39;21.60;99.90
24836;DHT22;12915;57.650;12.044;2022-07-29T06:48:09;21.50;99.90
24836;DHT22;12915;57.650;12.044;2022-07-29T10:46:00;25.10;99.90
24836;DHT22;12915;57.650;12.044;2022-07-29T10:53:54;24.90;99.90
24836;DHT22;12915;57.650;12.044;2022-07-29T11:18:03;24.30;99.90
24836;DHT22;12915;57.650;12.044;2022-07-29T11:20:41;24.40;99.90
24836;DHT22;12915;57.650;12.044;2022-07-29T11:23:34;24.60;99.90
24836;DHT22;12915;57.650;12.044;2022-07-29T11:34:23;24.90;99.90
24836;DHT22;12915;57.650;12.044;2022-07-29T11:39:26;25.60;99.90
24836;DHT22;12915;57.650;12.044;2022-07-29T11:57:25;25.90;99.90
24836;DHT22;12915;57.650;12.044;2022-07-29T11:59:51;25.80;99.90
24836;DHT22;12915;57.650;12.044;2022-07-29T12:02:18;25.60;99.90
24836;DHT22;12915;57.650;12.044;2022-07-29T12:04:56;25.60;99.90
24836;DHT22;12915;57.650;12.044;2022-07-29T12:12:36;26.00;99.90
24836;DHT22;12915;57.650;12.044;2022-07-29T12:15:19;25.80;99.90
24836;DHT22;12915;57.650;12.044;2022-07-29T12:20:29;25.80;99.90
24836;DHT22;12915;57.650;12.044;2022-07-29T12:23:04;25.90;99.90
24836;DHT22;12915;57.650;12.044;2022-07-29T12:28:23;26.00;99.90
24836;DHT22;12915;57.650;12.044;2022-07-29T12:30:52;26.40;99.90
24836;DHT22;12915;57.650;12.044;2022-07-29T12:33:26;26.60;99.90
24836;DHT22;12915;57.650;12.044;2022-07-29T12:46:16;26.40;99.90
24836;DHT22;12915;57.650;12.044;2022-07-29T12:48:43;26.40;99.90
24836;DHT22;12915;57.650;12.044;2022-07-29T12:51:31;26.50;99.90
24836;DHT22;12915;57.650;12.044;2022-07-29T13:04:38;27.90;99.90
24836;DHT22;12915;57.650;12.044;2022-07-29T13:12:15;27.20;99.90
24836;DHT22;12915;57.650;12.044;2022-07-29T14:41:34;32.40;99.90
24836;DHT22;12915;57.650;12.044;2022-07-29T14:52:35;32.30;99.90
24836;DHT22;12915;57.650;12.044;2022-07-29T14:55:01;32.00;99.90
24836;DHT22;12915;57.650;12.044;2022-07-29T15:11:38;33.40;99.90
24836;DHT22;12915;57.650;12.044;2022-07-29T15:14:08;34.00;99.90
24836;DHT22;12915;57.650;12.044;2022-07-29T15:55:53;29.60;99.90
24836;DHT22;12915;57.650;12.044;2022-07-29T18:42:22;26.60;99.90
24836;DHT22;12915;57.650;12.044;2022-07-29T18:44:49;26.60;99.90
24836;DHT22;12915;57.650;12.044;2022-07-29T18:50:58;26.50;99.90
24836;DHT22;12915;57.650;12.044;2022-07-29T18:53:24;26.40;99.90
24836;DHT22;12915;57.650;12.044;2022-07-29T18:55:53;26.40;99.90
24836;DHT22;12915;57.650;12.044;2022-07-29T18:58:23;26.40;99.90
24836;DHT22;12915;57.650;12.044;2022-07-29T19:00:56;26.30;99.90
24836;DHT22;12915;57.650;12.044;2022-07-29T19:26:46;25.50;99.90
24836;DHT22;12915;57.650;12.044;2022-07-29T19:29:15;25.30;99.90
24836;DHT22;12915;57.650;12.044;2022-07-29T19:31:45;25.10;99.90
24836;DHT22;12915;57.650;12.044;2022-07-29T19:34:29;25.00;99.90
24836;DHT22;12915;57.650;12.044;2022-07-29T19:37:01;25.00;99.90
24836;DHT22;12915;57.650;12.044;2022-07-29T20:33:13;23.30;99.90
24836;DHT22;12915;57.650;12.044;2022-07-29T20:35:40;23.20;99.90
24836;DHT22;12915;57.650;12.044;2022-07-29T20:38:08;23.20;99.90
24836;DHT22;12915;57.650;12.044;2022-07-29T20:40:40;23.30;99.90
24836;DHT22;12915;57.650;12.044;2022-07-29T20:43:13;23.30;99.90
24836;DHT22;12915;57.650;12.044;2022-07-29T20:45:42;23.20;99.90
24836;DHT22;12915;57.650;12.044;2022-07-29T20:48:09;23.40;99.90
24836;DHT22;12915;57.650;12.044;2022-07-29T21:14:16;23.60;99.90
24836;DHT22;12915;57.650;12.044;2022-07-29T21:17:00;23.60;99.90
24836;DHT22;12915;57.650;12.044;2022-07-29T21:19:31;23.50;99.90
24836;DHT22;12915;57.650;12.044;2022-07-29T21:35:13;23.10;99.90
24836;DHT22;12915;57.650;12.044;2022-07-29T21:50:36;22.60;99.90
24836;DHT22;12915;57.650;12.044;2022-07-29T21:53:02;22.50;99.90
24836;DHT22;12915;57.650;12.044;2022-07-29T21:55:30;22.40;99.90
24836;DHT22;12915;57.650;12.044;2022-07-29T21:57:56;22.40;99.90
24836;DHT22;12915;57.650;12.044;2022-07-29T22:00:22;22.30;99.90
24836;DHT22;12915;57.650;12.044;2022-07-29T22:02:51;22.20;99.90
24836;DHT22;12915;57.650;12.044;2022-07-29T22:05:18;22.20;99.90
24836;DHT22;12915;57.650;12.044;2022-07-29T22:07:48;22.10;99.90
24836;DHT22;12915;57.650;12.044;2022-07-29T22:10:15;21.90;99.90
24836;DHT22;12915;57.650;12.044;2022-07-29T22:12:43;21.90;99.90
24836;DHT22;12915;57.650;12.044;2022-07-29T22:15:10;21.80;99.90
24836;DHT22;12915;57.650;12.044;2022-07-29T22:17:36;21.70;99.90
24836;DHT22;12915;57.650;12.044;2022-07-29T22:20:03;21.60;99.90
24836;DHT22;12915;57.650;12.044;2022-07-29T22:22:30;21.50;99.90
24836;DHT22;12915;57.650;12.044;2022-07-29T22:24:55;21.50;99.90
24836;DHT22;12915;57.650;12.044;2022-07-29T22:27:21;21.60;99.90
24836;DHT22;12915;57.650;12.044;2022-07-29T22:29:47;21.60;99.90
24836;DHT22;12915;57.650;12.044;2022-07-29T22:32:13;21.50;99.90
24836;DHT22;12915;57.650;12.044;2022-07-29T22:34:39;21.50;99.90
24836;DHT22;12915;57.650;12.044;2022-07-29T22:37:05;21.60;99.90
24836;DHT22;12915;57.650;12.044;2022-07-29T22:39:31;21.60;99.90
24836;DHT22;12915;57.650;12.044;2022-07-29T22:41:57;21.60;99.90
24836;DHT22;12915;57.650;12.044;2022-07-29T22:44:23;21.60;99.90
24836;DHT22;12915;57.650;12.044;2022-07-29T22:46:48;21.60;99.90
24836;DHT22;12915;57.650;12.044;2022-07-29T22:49:14;21.60;99.90
24836;DHT22;12915;57.650;12.044;2022-07-29T22:51:40;21.50;99.90
24836;DHT22;12915;57.650;12.044;2022-07-29T22:54:06;21.40;99.90
24836;DHT22;12915;57.650;12.044;2022-07-29T22:56:32;21.10;99.90
24836;DHT22;12915;57.650;12.044;2022-07-29T22:58:57;21.00;99.90
24836;DHT22;12915;57.650;12.044;2022-07-29T23:01:23;20.90;99.90
24836;DHT22;12915;57.650;12.044;2022-07-29T23:03:49;21.00;99.90
24836;DHT22;12915;57.650;12.044;2022-07-29T23:06:15;21.00;99.90
24836;DHT22;12915;57.650;12.044;2022-07-29T23:08:41;21.00;99.90
24836;DHT22;12915;57.650;12.044;2022-07-29T23:11:07;20.90;99.90
24836;DHT22;12915;57.650;12.044;2022-07-29T23:13:33;20.90;99.90
24836;DHT22;12915;57.650;12.044;2022-07-29T23:16:00;21.00;99.90
24836;DHT22;12915;57.650;12.044;2022-07-29T23:18:26;21.00;99.90
24836;DHT22;12915;57.650;12.044;2022-07-29T23:20:52;20.90;99.90
24836;DHT22;12915;57.650;12.044;2022-07-29T23:23:18;20.90;99.90
24836;DHT22;12915;57.650;12.044;2022-07-29T23:25:44;20.70;99.90
24836;DHT22;12915;57.650;12.044;2022-07-29T23:28:10;20.70;99.90
24836;DHT22;12915;57.650;12.044;2022-07-29T23:30:39;20.60;99.90
24836;DHT22;12915;57.650;12.044;2022-07-29T23:33:06;20.50;99.90
24836;DHT22;12915;57.650;12.044;2022-07-29T23:35:32;20.60;99.90
24836;DHT22;12915;57.650;12.044;2022-07-29T23:38:01;20.50;99.90
24836;DHT22;12915;57.650;12.044;2022-07-29T23:40:27;20.50;99.90
24836;DHT22;12915;57.650;12.044;2022-07-29T23:42:56;20.40;99.90
24836;DHT22;12915;57.650;12.044;2022-07-29T23:45:22;20.30;99.90
24836;DHT22;12915;57.650;12.044;2022-07-29T23:47:48;20.20;99.90
24836;DHT22;12915;57.650;12.044;2022-07-29T23:50:14;20.10;99.90
24836;DHT22;12915;57.650;12.044;2022-07-29T23:52:42;20.00;99.90
24836;DHT22;12915;57.650;12.044;2022-07-29T23:55:09;20.00;99.90
24836;DHT22;12915;57.650;12.044;2022-07-29T23:57:39;20.10;99.90
